createdAt,value
2023-04-30T00:01:38.673Z,50.42
2023-04-30T00:04:06.436Z,50.98
2023-04-30T00:06:34.091Z,50.92
2023-04-30T00:09:01.471Z,50.88
2023-04-30T00:11:29.065Z,51.44
2023-04-30T00:13:57.148Z,50.85
2023-04-30T00:16:24.601Z,51.93
2023-04-30T00:18:52.263Z,51.96
2023-04-30T00:21:19.662Z,51.54
2023-04-30T00:23:47.055Z,51.32
2023-04-30T00:26:15.555Z,51.80
2023-04-30T00:28:44.082Z,51.67
2023-04-30T00:31:11.433Z,52.18
2023-04-30T00:33:39.492Z,52.15
2023-04-30T00:36:06.872Z,52.04
2023-04-30T00:38:34.252Z,52.52
2023-04-30T00:41:01.931Z,53.10
2023-04-30T00:43:29.404Z,53.33
2023-04-30T00:45:56.910Z,52.76
2023-04-30T00:48:25.016Z,52.55
2023-04-30T00:50:52.454Z,52.83
2023-04-30T00:53:19.826Z,52.52
2023-04-30T00:55:47.801Z,52.38
2023-04-30T00:58:15.281Z,52.54
2023-04-30T01:00:47.128Z,52.98
2023-04-30T01:03:14.979Z,53.54
2023-04-30T01:05:42.454Z,53.35
2023-04-30T01:08:09.906Z,53.21
2023-04-30T01:10:52.259Z,52.62
2023-04-30T01:13:29.801Z,52.63
2023-04-30T01:16:00.726Z,52.86
2023-04-30T01:18:30.117Z,53.05
2023-04-30T01:21:04.255Z,54.48
2023-04-30T01:23:34.451Z,54.11
2023-04-30T01:26:11.312Z,52.70
2023-04-30T01:28:38.867Z,52.95
2023-04-30T01:31:18.161Z,53.12
2023-04-30T01:33:45.684Z,53.30
2023-04-30T01:36:35.220Z,52.85
2023-04-30T01:39:11.712Z,52.91
2023-04-30T01:41:51.045Z,53.30
2023-04-30T01:44:34.378Z,53.52
2023-04-30T01:47:07.859Z,52.32
2023-04-30T01:49:48.191Z,55.02
2023-04-30T01:52:19.048Z,54.21
2023-04-30T01:54:51.622Z,53.88
2023-04-30T01:57:32.347Z,55.11
2023-04-30T01:59:59.698Z,54.45
2023-04-30T02:02:27.545Z,54.65
2023-04-30T02:04:55.257Z,55.28
2023-04-30T02:07:41.211Z,55.19
2023-04-30T02:10:09.446Z,54.66
2023-04-30T02:12:36.872Z,54.35
2023-04-30T02:15:04.940Z,54.70
2023-04-30T02:17:33.008Z,56.31
2023-04-30T02:20:00.491Z,57.65
2023-04-30T02:22:27.896Z,55.62
2023-04-30T02:24:55.895Z,55.85
2023-04-30T02:27:23.902Z,55.36
2023-04-30T02:29:51.473Z,55.04
2023-04-30T02:32:19.177Z,55.50
2023-04-30T02:34:46.596Z,56.22
2023-04-30T02:37:13.971Z,55.61
2023-04-30T02:39:41.878Z,57.79
2023-04-30T02:42:09.297Z,59.22
2023-04-30T02:44:36.746Z,57.67
2023-04-30T02:47:04.835Z,57.67
2023-04-30T02:49:33.326Z,57.46
2023-04-30T02:52:01.059Z,57.15
2023-04-30T02:54:28.793Z,56.79
2023-04-30T02:56:56.772Z,60.06
2023-04-30T02:59:24.148Z,63.00
2023-04-30T03:01:51.803Z,62.49
2023-04-30T03:04:19.197Z,62.19
2023-04-30T03:06:46.673Z,63.97
2023-04-30T03:09:15.255Z,64.38
2023-04-30T03:11:42.628Z,62.11
2023-04-30T03:14:10.008Z,61.94
2023-04-30T03:16:37.758Z,59.91
2023-04-30T03:19:05.184Z,59.82
2023-04-30T03:21:32.730Z,61.57
2023-04-30T03:24:00.405Z,59.36
2023-04-30T03:26:27.995Z,58.67
2023-04-30T03:28:55.854Z,63.36
2023-04-30T03:31:24.135Z,67.82
2023-04-30T03:33:51.564Z,65.64
2023-04-30T03:36:18.945Z,64.91
2023-04-30T03:38:46.626Z,64.52
2023-04-30T03:41:13.985Z,65.64
2023-04-30T03:43:41.411Z,66.01
2023-04-30T03:46:09.174Z,62.50
2023-04-30T03:48:36.604Z,63.32
2023-04-30T03:51:04.451Z,66.52
2023-04-30T03:53:32.094Z,67.31
2023-04-30T03:55:59.549Z,68.16
2023-04-30T03:58:27.347Z,69.56
2023-04-30T04:00:55.038Z,65.56
2023-04-30T04:03:23.173Z,67.60
2023-04-30T04:05:50.565Z,68.41
2023-04-30T04:08:18.344Z,71.05
2023-04-30T04:10:45.991Z,70.26
2023-04-30T04:13:13.367Z,71.83
2023-04-30T04:15:40.802Z,71.09
2023-04-30T04:18:08.698Z,72.70
2023-04-30T04:20:36.351Z,69.77
2023-04-30T04:23:03.894Z,70.75
2023-04-30T04:25:33.473Z,69.97
2023-04-30T04:28:00.862Z,71.73
2023-04-30T04:30:28.252Z,72.39
2023-04-30T04:32:56.514Z,72.08
2023-04-30T04:35:23.904Z,73.61
2023-04-30T04:37:51.321Z,76.02
2023-04-30T04:40:18.910Z,77.10
2023-04-30T04:42:48.607Z,75.64
2023-04-30T04:45:16.233Z,72.56
2023-04-30T04:47:44.038Z,72.95
2023-04-30T04:50:11.468Z,73.97
2023-04-30T04:52:39.244Z,73.75
2023-04-30T04:55:07.367Z,76.55
2023-04-30T04:57:34.753Z,76.74
2023-04-30T05:00:02.278Z,76.45
2023-04-30T05:02:30.110Z,76.63
2023-04-30T05:04:57.643Z,76.55
2023-04-30T05:07:25.008Z,73.73
2023-04-30T05:09:53.189Z,75.14
2023-04-30T05:12:21.056Z,73.22
2023-04-30T05:14:49.487Z,71.80
2023-04-30T05:17:17.192Z,73.19
2023-04-30T05:19:45.294Z,75.74
2023-04-30T05:22:12.646Z,77.24
2023-04-30T05:24:40.386Z,73.86
2023-04-30T05:27:08.064Z,68.66
2023-04-30T05:29:35.492Z,62.11
2023-04-30T05:32:03.312Z,59.66
2023-04-30T05:34:30.767Z,64.12
2023-04-30T05:36:58.147Z,66.69
2023-04-30T05:39:25.750Z,65.46
2023-04-30T05:41:53.559Z,64.20
2023-04-30T05:44:21.286Z,65.86
2023-04-30T05:46:48.909Z,66.49
2023-04-30T05:49:16.285Z,68.68
2023-04-30T05:51:43.607Z,69.23
2023-04-30T05:54:11.258Z,70.91
2023-04-30T05:56:38.582Z,66.52
2023-04-30T05:59:05.929Z,64.38
2023-04-30T06:01:33.820Z,64.34
2023-04-30T06:04:01.689Z,61.30
2023-04-30T06:06:29.092Z,64.19
2023-04-30T06:08:56.461Z,65.47
2023-04-30T06:11:25.805Z,62.73
2023-04-30T06:13:53.147Z,60.45
2023-04-30T06:16:20.600Z,56.02
2023-04-30T06:18:48.271Z,51.87
2023-04-30T06:21:15.607Z,46.88
2023-04-30T06:23:42.945Z,43.59
2023-04-30T06:26:10.667Z,51.16
2023-04-30T06:28:38.014Z,47.01
2023-04-30T06:31:05.420Z,49.23
2023-04-30T06:33:33.122Z,47.37
2023-04-30T06:36:00.481Z,54.63
2023-04-30T06:38:27.846Z,53.06
2023-04-30T06:40:55.504Z,50.56
2023-04-30T06:43:22.859Z,50.68
2023-04-30T06:45:50.380Z,51.02
2023-04-30T06:48:18.001Z,54.89
2023-04-30T06:50:45.484Z,55.66
2023-04-30T06:53:12.937Z,51.75
2023-04-30T06:55:44.877Z,51.07
2023-04-30T06:58:12.451Z,49.74
2023-04-30T07:00:39.769Z,45.24
2023-04-30T07:03:08.083Z,48.92
2023-04-30T07:05:35.493Z,47.81
2023-04-30T07:08:03.600Z,48.94
2023-04-30T07:10:31.688Z,50.85
2023-04-30T07:12:59.348Z,49.70
2023-04-30T07:15:26.778Z,51.82
2023-04-30T07:17:55.298Z,49.08
2023-04-30T07:20:22.724Z,48.08
2023-04-30T07:22:50.108Z,49.47
2023-04-30T07:25:17.835Z,50.75
2023-04-30T07:27:45.382Z,51.07
2023-04-30T07:30:12.745Z,46.07
2023-04-30T07:32:41.586Z,46.91
2023-04-30T07:35:09.394Z,41.76
2023-04-30T07:37:37.182Z,43.68
2023-04-30T07:40:09.229Z,46.52
2023-04-30T07:42:36.602Z,47.96
2023-04-30T07:45:04.825Z,45.30
2023-04-30T07:47:32.540Z,41.87
2023-04-30T07:49:59.999Z,42.96
2023-04-30T07:52:27.423Z,39.98
2023-04-30T07:54:55.044Z,44.09
2023-04-30T07:57:22.392Z,45.50
2023-04-30T07:59:51.364Z,39.48
2023-04-30T08:02:21.201Z,38.92
2023-04-30T08:04:49.331Z,38.81
2023-04-30T08:07:16.842Z,40.46
2023-04-30T08:09:44.211Z,36.95
2023-04-30T08:12:11.829Z,36.15
2023-04-30T08:14:39.185Z,32.56
2023-04-30T08:17:06.770Z,39.18
2023-04-30T08:19:34.364Z,41.68
2023-04-30T08:22:01.753Z,40.80
2023-04-30T08:24:29.115Z,36.99
2023-04-30T08:26:56.734Z,40.47
2023-04-30T08:29:24.122Z,37.21
2023-04-30T08:31:52.233Z,38.97
2023-04-30T08:34:19.880Z,40.72
2023-04-30T08:36:47.221Z,38.04
2023-04-30T08:39:14.579Z,37.40
2023-04-30T08:41:42.533Z,35.86
2023-04-30T08:44:09.901Z,35.73
2023-04-30T08:46:37.818Z,35.68
2023-04-30T08:49:05.533Z,33.39
2023-04-30T08:51:33.435Z,30.10
2023-04-30T08:54:00.810Z,33.23
2023-04-30T08:56:31.253Z,30.83
2023-04-30T08:58:58.620Z,30.17
2023-04-30T09:01:26.095Z,33.46
2023-04-30T09:03:53.856Z,32.83
2023-04-30T09:06:21.346Z,33.63
2023-04-30T09:08:49.477Z,34.35
2023-04-30T09:11:23.762Z,39.18
2023-04-30T09:13:52.739Z,37.40
2023-04-30T09:16:21.347Z,34.75
2023-04-30T09:18:48.807Z,37.26
2023-04-30T09:21:16.177Z,40.08
2023-04-30T09:23:56.844Z,38.63
2023-04-30T09:26:34.947Z,34.79
2023-04-30T09:29:07.816Z,34.18
2023-04-30T09:31:38.899Z,33.42
2023-04-30T09:34:06.732Z,33.84
2023-04-30T09:36:34.326Z,35.52
2023-04-30T09:39:17.404Z,32.31
2023-04-30T09:41:45.014Z,33.50
2023-04-30T09:44:31.532Z,33.29
2023-04-30T09:46:59.368Z,36.20
2023-04-30T09:49:27.384Z,30.50
2023-04-30T09:51:56.570Z,31.24
2023-04-30T09:54:31.942Z,31.60
2023-04-30T09:57:01.521Z,32.68
2023-04-30T09:59:31.181Z,31.67
2023-04-30T10:02:02.572Z,30.98
2023-04-30T10:04:37.712Z,32.71
2023-04-30T10:07:15.426Z,34.50
2023-04-30T10:09:57.398Z,33.18
2023-04-30T10:12:27.719Z,33.08
2023-04-30T10:14:57.424Z,30.14
2023-04-30T10:17:27.319Z,32.53
2023-04-30T10:19:57.311Z,34.93
2023-04-30T10:22:24.662Z,35.08
2023-04-30T10:24:52.021Z,32.63
2023-04-30T10:27:19.633Z,33.17
2023-04-30T10:29:47.466Z,33.48
2023-04-30T10:32:14.874Z,30.17
2023-04-30T10:34:51.825Z,31.61
2023-04-30T10:37:24.304Z,31.88
2023-04-30T10:39:51.945Z,32.89
2023-04-30T10:42:19.355Z,34.48
2023-04-30T10:44:46.884Z,36.87
2023-04-30T10:47:14.498Z,39.73
2023-04-30T10:49:48.092Z,39.99
2023-04-30T10:52:16.522Z,39.71
2023-04-30T10:54:49.932Z,38.73
2023-04-30T10:57:18.386Z,39.08
2023-04-30T11:00:14.606Z,39.27
2023-04-30T11:02:44.183Z,40.60
2023-04-30T11:05:18.937Z,40.32
2023-04-30T11:07:50.513Z,40.16
2023-04-30T11:10:21.687Z,38.99
2023-04-30T11:12:52.513Z,39.95
2023-04-30T11:15:42.426Z,39.13
2023-04-30T11:18:10.180Z,38.80
2023-04-30T11:20:42.069Z,39.53
2023-04-30T11:23:19.539Z,39.77
2023-04-30T11:25:49.455Z,40.71
2023-04-30T11:28:22.925Z,39.78
2023-04-30T11:30:57.703Z,39.89
2023-04-30T11:33:26.810Z,40.42
2023-04-30T11:35:55.938Z,39.63
2023-04-30T11:38:26.915Z,39.46
2023-04-30T11:40:55.081Z,38.51
2023-04-30T11:43:26.835Z,39.91
2023-04-30T11:46:08.501Z,39.52
2023-04-30T11:48:37.872Z,39.97
2023-04-30T11:51:18.614Z,39.12
2023-04-30T11:53:47.075Z,38.53
2023-04-30T11:56:14.433Z,37.79
2023-04-30T11:58:41.866Z,37.96
2023-04-30T12:01:10.125Z,38.66
2023-04-30T12:03:56.332Z,38.64
2023-04-30T12:06:27.644Z,39.17
2023-04-30T12:08:55.984Z,39.60
2023-04-30T12:11:26.785Z,40.66
2023-04-30T12:14:00.838Z,40.35
2023-04-30T12:16:28.735Z,39.59
2023-04-30T12:18:56.153Z,39.44
2023-04-30T12:21:23.542Z,40.07
2023-04-30T12:23:51.245Z,39.66
2023-04-30T12:26:18.616Z,39.61
2023-04-30T12:28:49.726Z,39.10
2023-04-30T12:31:18.114Z,40.55
2023-04-30T12:33:53.954Z,40.40
2023-04-30T12:36:21.640Z,39.72
2023-04-30T12:38:48.996Z,39.87
2023-04-30T12:41:17.518Z,40.42
2023-04-30T12:43:45.510Z,40.04
2023-04-30T12:46:12.964Z,39.78
2023-04-30T12:48:46.625Z,39.63
2023-04-30T12:51:19.511Z,39.46
2023-04-30T12:53:47.021Z,39.61
2023-04-30T12:56:16.347Z,39.20
2023-04-30T12:58:49.623Z,38.96
2023-04-30T13:01:18.721Z,39.01
2023-04-30T13:03:46.214Z,38.39
2023-04-30T13:06:13.948Z,36.98
2023-04-30T13:08:54.045Z,37.81
2023-04-30T13:11:26.301Z,38.66
2023-04-30T13:13:57.542Z,37.93
2023-04-30T13:16:25.413Z,38.61
2023-04-30T13:18:53.779Z,37.42
2023-04-30T13:21:21.338Z,36.78
2023-04-30T13:23:53.495Z,37.46
2023-04-30T13:26:23.458Z,37.94
2023-04-30T13:28:51.201Z,37.13
2023-04-30T13:31:18.617Z,37.84
2023-04-30T13:33:46.369Z,36.98
2023-04-30T13:36:13.703Z,36.51
2023-04-30T13:38:41.621Z,36.62
2023-04-30T13:41:09.345Z,37.79
2023-04-30T13:43:41.462Z,37.06
2023-04-30T13:46:10.004Z,36.53
2023-04-30T13:48:37.407Z,38.48
2023-04-30T13:51:04.820Z,38.44
2023-04-30T13:53:32.465Z,37.65
2023-04-30T13:55:59.805Z,37.11
2023-04-30T13:58:27.469Z,36.86
2023-04-30T14:00:55.162Z,37.25
2023-04-30T14:03:23.055Z,37.21
2023-04-30T14:05:50.927Z,36.78
2023-04-30T14:08:18.295Z,36.64
2023-04-30T14:10:45.945Z,36.24
2023-04-30T14:13:13.566Z,36.88
2023-04-30T14:15:40.917Z,36.64
2023-04-30T14:18:08.780Z,37.21
2023-04-30T14:20:36.330Z,38.07
2023-04-30T14:23:03.676Z,37.72
2023-04-30T14:25:31.541Z,37.76
2023-04-30T14:27:58.999Z,37.08
2023-04-30T14:30:26.514Z,37.26
2023-04-30T14:32:54.205Z,37.43
2023-04-30T14:35:21.558Z,36.74
2023-04-30T14:37:48.931Z,36.88
2023-04-30T14:40:16.612Z,37.43
2023-04-30T14:42:44.291Z,37.25
2023-04-30T14:45:11.768Z,36.44
2023-04-30T14:47:39.405Z,36.16
2023-04-30T14:50:06.924Z,36.91
2023-04-30T14:52:34.578Z,36.69
2023-04-30T14:55:03.236Z,37.54
2023-04-30T14:57:30.676Z,37.69
2023-04-30T14:59:59.486Z,37.25
2023-04-30T15:02:27.247Z,36.84
2023-04-30T15:04:54.664Z,37.24
2023-04-30T15:07:22.021Z,36.00
2023-04-30T15:09:49.623Z,36.43
2023-04-30T15:12:16.999Z,36.87
2023-04-30T15:14:44.848Z,37.36
2023-04-30T15:17:12.470Z,37.81
2023-04-30T15:19:39.916Z,36.54
2023-04-30T15:22:07.528Z,36.19
2023-04-30T15:24:36.238Z,36.86
2023-04-30T15:27:04.400Z,36.42
2023-04-30T15:29:31.794Z,35.89
2023-04-30T15:31:59.802Z,36.14
2023-04-30T15:34:27.322Z,36.56
2023-04-30T15:36:54.650Z,35.09
2023-04-30T15:39:22.358Z,36.03
2023-04-30T15:41:49.719Z,35.89
2023-04-30T15:44:17.034Z,37.34
2023-04-30T15:46:44.665Z,36.21
2023-04-30T15:49:12.142Z,37.80
2023-04-30T15:51:39.490Z,40.49
2023-04-30T15:54:07.481Z,41.95
2023-04-30T15:56:35.752Z,43.73
2023-04-30T15:59:03.162Z,42.14
2023-04-30T16:01:30.900Z,44.08
2023-04-30T16:04:00.415Z,45.80
2023-04-30T16:06:29.249Z,45.15
2023-04-30T16:08:56.703Z,45.08
2023-04-30T16:11:24.440Z,44.49
2023-04-30T16:13:52.107Z,46.99
2023-04-30T16:16:19.606Z,48.68
2023-04-30T16:18:47.278Z,48.30
2023-04-30T16:21:14.685Z,48.30
2023-04-30T16:23:42.518Z,48.00
2023-04-30T16:26:10.143Z,47.28
2023-04-30T16:28:37.492Z,47.99
2023-04-30T16:31:04.894Z,46.28
2023-04-30T16:33:32.524Z,46.22
2023-04-30T16:36:00.176Z,48.48
2023-04-30T16:38:27.578Z,50.00
2023-04-30T16:40:55.184Z,48.39
2023-04-30T16:43:22.565Z,48.55
2023-04-30T16:45:50.093Z,49.56
2023-04-30T16:48:17.735Z,47.86
2023-04-30T16:50:45.087Z,46.75
2023-04-30T16:53:12.467Z,48.18
2023-04-30T16:55:40.068Z,48.23
2023-04-30T16:58:07.433Z,47.84
2023-04-30T17:00:34.835Z,47.50
2023-04-30T17:03:02.565Z,48.96
2023-04-30T17:05:30.955Z,46.06
2023-04-30T17:07:58.311Z,48.12
2023-04-30T17:10:27.280Z,47.29
2023-04-30T17:12:57.633Z,48.69
2023-04-30T17:15:28.041Z,47.83
2023-04-30T17:17:56.959Z,48.32
2023-04-30T17:20:24.355Z,48.33
2023-04-30T17:22:53.329Z,47.16
2023-04-30T17:25:21.074Z,49.52
2023-04-30T17:27:48.493Z,47.54
2023-04-30T17:30:15.885Z,49.06
2023-04-30T17:32:44.183Z,49.15
2023-04-30T17:35:11.572Z,50.09
2023-04-30T17:37:38.963Z,53.58
2023-04-30T17:40:07.674Z,54.76
2023-04-30T17:42:35.199Z,55.02
2023-04-30T17:45:02.560Z,57.30
2023-04-30T17:47:31.642Z,58.94
2023-04-30T17:49:59.737Z,58.38
2023-04-30T17:52:27.184Z,58.34
2023-04-30T17:54:55.005Z,58.36
2023-04-30T17:57:22.447Z,57.55
2023-04-30T17:59:49.789Z,57.40
2023-04-30T18:02:17.487Z,57.57
2023-04-30T18:04:45.373Z,57.70
2023-04-30T18:07:12.697Z,57.43
2023-04-30T18:09:40.064Z,57.69
2023-04-30T18:12:07.722Z,57.32
2023-04-30T18:14:35.126Z,57.30
2023-04-30T18:17:02.676Z,57.43
2023-04-30T18:19:30.310Z,57.28
2023-04-30T18:21:57.733Z,55.60
2023-04-30T18:24:28.523Z,52.92
2023-04-30T18:26:56.188Z,54.43
2023-04-30T18:29:23.706Z,54.46
2023-04-30T18:31:51.114Z,52.35
2023-04-30T18:34:18.736Z,52.00
2023-04-30T18:36:46.099Z,52.86
2023-04-30T18:39:13.469Z,52.10
2023-04-30T18:41:41.150Z,50.23
2023-04-30T18:44:09.713Z,51.12
2023-04-30T18:46:37.112Z,50.19
2023-04-30T18:49:05.521Z,50.31
2023-04-30T18:51:32.901Z,51.77
2023-04-30T18:54:00.405Z,53.52
2023-04-30T18:56:28.005Z,53.27
2023-04-30T18:58:55.336Z,53.02
2023-04-30T19:01:24.392Z,52.22
2023-04-30T19:03:52.127Z,51.65
2023-04-30T19:06:19.523Z,50.43
2023-04-30T19:08:47.002Z,51.87
2023-04-30T19:11:15.072Z,51.13
2023-04-30T19:13:42.457Z,51.06
2023-04-30T19:16:09.854Z,51.33
2023-04-30T19:18:39.577Z,51.59
2023-04-30T19:21:07.209Z,52.79
2023-04-30T19:23:35.659Z,53.54
2023-04-30T19:26:03.433Z,53.54
2023-04-30T19:28:30.892Z,55.16
2023-04-30T19:30:58.477Z,54.92
2023-04-30T19:33:26.257Z,53.44
2023-04-30T19:35:54.637Z,54.23
2023-04-30T19:38:22.152Z,54.72
2023-04-30T19:40:52.000Z,54.59
2023-04-30T19:43:19.907Z,55.28
2023-04-30T19:45:49.768Z,54.18
2023-04-30T19:48:17.575Z,54.17
2023-04-30T19:50:45.494Z,53.64
2023-04-30T19:53:13.080Z,53.88
2023-04-30T19:55:40.798Z,53.67
2023-04-30T19:58:08.196Z,53.99
2023-04-30T20:00:44.056Z,53.07
2023-04-30T20:03:12.466Z,54.11
2023-04-30T20:05:39.926Z,54.55
2023-04-30T20:08:07.765Z,54.29
2023-04-30T20:10:36.335Z,53.90
2023-04-30T20:13:04.493Z,53.30
2023-04-30T20:15:31.973Z,53.28
2023-04-30T20:17:59.899Z,53.96
2023-04-30T20:20:28.416Z,54.11
2023-04-30T20:22:56.249Z,53.45
2023-04-30T20:25:29.430Z,52.63
2023-04-30T20:27:56.998Z,52.78
2023-04-30T20:30:24.609Z,53.68
2023-04-30T20:32:52.015Z,53.92
2023-04-30T20:35:19.484Z,53.92
2023-04-30T20:37:49.696Z,53.42
2023-04-30T20:40:17.081Z,52.81
2023-04-30T20:42:44.467Z,52.28
2023-04-30T20:45:12.130Z,52.50
2023-04-30T20:47:39.843Z,54.24
2023-04-30T20:50:10.421Z,54.28
2023-04-30T20:52:38.043Z,53.27
2023-04-30T20:55:05.710Z,52.81
2023-04-30T20:57:33.046Z,53.59
2023-04-30T21:00:00.774Z,53.32
2023-04-30T21:02:28.259Z,53.59
2023-04-30T21:04:55.920Z,53.27
2023-04-30T21:07:23.509Z,54.92
2023-04-30T21:09:50.917Z,53.90
2023-04-30T21:12:18.256Z,54.76
2023-04-30T21:14:45.918Z,56.11
2023-04-30T21:17:14.453Z,56.98
2023-04-30T21:19:41.783Z,57.71
2023-04-30T21:22:09.404Z,55.79
2023-04-30T21:24:36.936Z,56.41
2023-04-30T21:27:05.393Z,56.08
2023-04-30T21:29:33.957Z,55.39
2023-04-30T21:32:01.771Z,54.66
2023-04-30T21:34:32.700Z,55.38
2023-04-30T21:37:00.334Z,56.98
2023-04-30T21:39:27.654Z,55.58
2023-04-30T21:41:55.031Z,56.32
2023-04-30T21:44:22.664Z,57.42
2023-04-30T21:46:50.838Z,56.80
2023-04-30T21:49:18.352Z,57.72
2023-04-30T21:51:46.052Z,57.55
2023-04-30T21:54:13.412Z,57.11
2023-04-30T21:56:41.156Z,58.37
2023-04-30T21:59:08.750Z,57.75
2023-04-30T22:01:36.155Z,57.43
2023-04-30T22:04:04.640Z,56.94
2023-04-30T22:06:35.030Z,58.39
2023-04-30T22:09:02.482Z,58.62
2023-04-30T22:11:30.176Z,58.55
2023-04-30T22:13:57.727Z,58.46
2023-04-30T22:16:25.124Z,57.87
2023-04-30T22:18:52.758Z,58.41
2023-04-30T22:21:20.115Z,58.59
2023-04-30T22:23:47.648Z,57.03
2023-04-30T22:26:15.386Z,56.39
2023-04-30T22:28:42.756Z,55.85
2023-04-30T22:31:10.115Z,54.58
2023-04-30T22:33:37.805Z,54.87
2023-04-30T22:36:06.195Z,54.47
2023-04-30T22:38:33.762Z,54.63
2023-04-30T22:41:01.461Z,54.54
2023-04-30T22:43:30.378Z,53.99
2023-04-30T22:45:58.682Z,53.78
2023-04-30T22:48:27.701Z,53.48
2023-04-30T22:50:55.511Z,53.28
2023-04-30T22:53:22.976Z,53.70
2023-04-30T22:55:50.691Z,53.54
2023-04-30T22:58:18.350Z,53.38
2023-04-30T23:00:45.855Z,53.06
2023-04-30T23:03:13.560Z,52.99
2023-04-30T23:05:40.968Z,52.61
2023-04-30T23:08:08.342Z,52.40
2023-04-30T23:10:35.970Z,52.00
2023-04-30T23:13:03.328Z,52.58
2023-04-30T23:15:30.735Z,52.33
2023-04-30T23:18:00.330Z,52.70
2023-04-30T23:20:28.417Z,51.81
2023-04-30T23:22:56.198Z,52.03
2023-04-30T23:25:23.861Z,52.90
2023-04-30T23:27:51.633Z,52.49
2023-04-30T23:30:19.007Z,52.82
2023-04-30T23:32:46.648Z,50.15
2023-04-30T23:35:14.020Z,51.16
2023-04-30T23:37:41.377Z,50.14
2023-04-30T23:40:09.828Z,51.32
2023-04-30T23:42:37.204Z,51.20
2023-04-30T23:45:04.844Z,51.19
2023-04-30T23:47:36.040Z,49.73
2023-04-30T23:50:04.060Z,50.96
2023-04-30T23:52:31.987Z,50.34
2023-04-30T23:54:59.859Z,50.43
2023-04-30T23:57:28.118Z,51.40
2023-04-30T23:59:56.432Z,51.22
